Nampa, ID

11:32 PM MDT on May 28, 2017 (GMT -0600)
Nampa

Weather History for KMAN - December, 2012

Change the Weather History Date:

Saturday, December 1, 2012

  Actual Average (KBOI) Record (KBOI)
Temperature  
Mean Temperature 50 °F -  
Max Temperature 57 °F 42 °F 62 °F (1926)
Min Temperature 44 °F 26 °F 9 °F (1948)
Degree Days  
Heating Degree Days 14    
Moisture  
Dew Point 41 °F    
Average Humidity 73    
Maximum Humidity 93    
Minimum Humidity 51    
Precipitation  
Precipitation 0.02 in - - ()
Sea Level Pressure  
Sea Level Pressure 29.81 in    
Wind  
Wind Speed 10 mph (SE)    
Max Wind Speed 15 mph    
Max Gust Speed 24 mph    
Visibility 10 miles    
Events      
Averages and records for this station are not official NWS values.
T = Trace of Precipitation, MM = Missing Value Source: NWS Daily Summary

Daily Weather History Graph

Daily Weather History Graph

Search for Another Location

Airport or City:

Trip Planner

Search our weather history database for the weather conditions in past years. The results will help you decide how hot, cold, wet, or windy it might be!

Date:

Astronomy

Dec. 01, 2012 Rise Set
Actual Time 8:00 AM MST 5:10 PM MST
Civil Twilight 7:27 AM MST 5:42 PM MST
Nautical Twilight 6:52 AM MST 6:18 PM MST
Astronomical Twilight 6:17 AM MST 6:52 PM MST
Moon 8:06 PM MST (12/1) 10:14 AM MST (12/1)
Length of Visible Light 10h 14m
Length of Day
9h 10m
Waning Gibbous, 91% of the Moon is Illuminated
Dec 1
Waning Gibbous
Dec 6
Last Quarter
Dec 13
New
Dec 19
First Quarter
Dec 28
Full

Hourly Weather History & Observations

Time (MST) Temp. Windchill Dew Point Humidity Pressure Visibility Wind Dir Wind Speed Gust Speed Precip Events Conditions
12:15 AM 46.4 °F 40.7 °F 41.0 °F 81% 29.83 in 10.0 mi SE 12.7 mph 18.4 mph N/A   Scattered Clouds
12:35 AM 44.6 °F 39.7 °F 41.0 °F 87% 29.84 in 10.0 mi ESE 9.2 mph - N/A   Clear
12:55 AM 44.6 °F 38.8 °F 41.0 °F 87% 29.83 in 10.0 mi ESE 11.5 mph 16.1 mph N/A   Partly Cloudy
1:15 AM 44.6 °F 39.2 °F 41.0 °F 87% 29.83 in 10.0 mi ESE 10.4 mph - N/A   Clear
1:35 AM 44.6 °F 41.4 °F 41.0 °F 87% 29.83 in 10.0 mi ESE 5.8 mph - N/A   Clear
1:55 AM 44.6 °F 40.2 °F 41.0 °F 87% 29.83 in 10.0 mi ESE 8.1 mph - N/A   Partly Cloudy
2:35 AM 46.4 °F 41.1 °F 41.0 °F 81% 29.84 in 10.0 mi SE 11.5 mph - N/A   Mostly Cloudy
2:55 AM 46.4 °F 41.1 °F 41.0 °F 81% 29.84 in 10.0 mi SE 11.5 mph - N/A   Mostly Cloudy
3:15 AM 46.4 °F 41.1 °F 41.0 °F 81% 29.85 in 10.0 mi SE 11.5 mph - N/A   Mostly Cloudy
3:35 AM 48.2 °F - 41.0 °F 76% 29.85 in 10.0 mi SE 10.4 mph 17.3 mph N/A   Overcast
3:55 AM 46.4 °F 40.7 °F 41.0 °F 81% 29.83 in 10.0 mi SE 12.7 mph 18.4 mph N/A   Scattered Clouds
4:15 AM 46.4 °F 40.4 °F 41.0 °F 81% 29.83 in 10.0 mi ESE 13.8 mph 20.7 mph N/A   Scattered Clouds
4:35 AM 46.4 °F 40.1 °F 41.0 °F 81% 29.83 in 10.0 mi SE 15.0 mph 20.7 mph N/A   Mostly Cloudy
4:55 AM 46.4 °F 40.4 °F 41.0 °F 81% 29.82 in 10.0 mi SE 13.8 mph 20.7 mph N/A   Overcast
5:15 AM 44.6 °F 40.7 °F 42.8 °F 93% 29.82 in 10.0 mi SSE 6.9 mph - N/A   Mostly Cloudy
5:35 AM 46.4 °F 41.9 °F 42.8 °F 87% 29.83 in 10.0 mi SSE 9.2 mph - N/A   Scattered Clouds
5:55 AM 46.4 °F 41.5 °F 42.8 °F 87% 29.83 in 10.0 mi SSE 10.4 mph - N/A   Mostly Cloudy
6:15 AM 46.4 °F 41.5 °F 41.0 °F 81% 29.83 in 10.0 mi SSE 10.4 mph - N/A   Scattered Clouds
6:35 AM 46.4 °F 41.1 °F 41.0 °F 81% 29.83 in 10.0 mi SE 11.5 mph - N/A   Scattered Clouds
6:55 AM 46.4 °F 41.5 °F 41.0 °F 81% 29.83 in 10.0 mi SE 10.4 mph - N/A   Mostly Cloudy
7:15 AM 46.4 °F 40.4 °F 41.0 °F 81% 29.83 in 10.0 mi SE 13.8 mph 24.2 mph N/A   Mostly Cloudy
7:35 AM 46.4 °F 41.9 °F 41.0 °F 81% 29.84 in 10.0 mi SSE 9.2 mph - N/A   Overcast
7:55 AM 46.4 °F 40.4 °F 41.0 °F 81% 29.83 in 10.0 mi SE 13.8 mph 19.6 mph N/A   Mostly Cloudy
8:15 AM 46.4 °F 40.4 °F 41.0 °F 81% 29.84 in 10.0 mi SE 13.8 mph - N/A   Scattered Clouds
8:35 AM 46.4 °F 41.1 °F 41.0 °F 81% 29.85 in 10.0 mi SE 11.5 mph 16.1 mph N/A   Scattered Clouds
8:55 AM 46.4 °F 40.7 °F 41.0 °F 81% 29.84 in 10.0 mi SE 12.7 mph 20.7 mph N/A   Overcast
9:15 AM 46.4 °F 40.7 °F 41.0 °F 81% 29.84 in 10.0 mi SE 12.7 mph 20.7 mph N/A   Mostly Cloudy
9:35 AM 46.4 °F 41.9 °F 42.8 °F 87% 29.85 in 10.0 mi SE 9.2 mph - N/A   Mostly Cloudy
9:55 AM 48.2 °F - 41.0 °F 76% 29.85 in 10.0 mi SE 9.2 mph 16.1 mph N/A   Overcast
10:15 AM 48.2 °F - 42.8 °F 82% 29.86 in 10.0 mi SE 5.8 mph - N/A   Mostly Cloudy
10:35 AM 50.0 °F - 41.0 °F 71% 29.86 in 10.0 mi SSE 8.1 mph - N/A   Mostly Cloudy
10:55 AM 50.0 °F - 41.0 °F 71% 29.87 in 10.0 mi SSE 10.4 mph 16.1 mph N/A   Overcast
11:15 AM 53.6 °F - 41.0 °F 62% 29.86 in 10.0 mi SSE 11.5 mph 16.1 mph N/A   Overcast
11:35 AM 55.4 °F - 39.2 °F 54% 29.86 in 10.0 mi South 12.7 mph - N/A   Mostly Cloudy
11:55 AM 55.4 °F - 39.2 °F 54% 29.86 in 10.0 mi South 11.5 mph 17.3 mph N/A   Mostly Cloudy
12:15 PM 55.4 °F - 39.2 °F 54% 29.86 in 10.0 mi South 10.4 mph 17.3 mph N/A   Mostly Cloudy
12:35 PM 57.2 °F - 39.2 °F 51% 29.86 in 10.0 mi South 6.9 mph - N/A   Mostly Cloudy
12:55 PM 55.4 °F - 39.2 °F 54% 29.85 in 10.0 mi SE 4.6 mph - N/A   Overcast
1:15 PM 57.2 °F - 39.2 °F 51% 29.85 in 10.0 mi SE 5.8 mph - N/A   Overcast
1:35 PM 57.2 °F - 39.2 °F 51% 29.84 in 10.0 mi ESE 5.8 mph - N/A   Overcast
1:55 PM 55.4 °F - 41.0 °F 58% 29.83 in 10.0 mi East 5.8 mph - N/A   Overcast
2:15 PM 57.2 °F - 39.2 °F 51% 29.82 in 10.0 mi ESE 4.6 mph - N/A   Overcast
2:35 PM 53.6 °F - 42.8 °F 67% 29.83 in 5.0 mi SSW 5.8 mph - 0.02 in   Mostly Cloudy
2:55 PM 53.6 °F - 42.8 °F 67% 29.83 in 9.0 mi SW 6.9 mph 19.6 mph 0.02 in   Scattered Clouds
3:15 PM 53.6 °F - 46.4 °F 77% 29.82 in 10.0 mi North 3.5 mph - N/A   Mostly Cloudy
3:35 PM 53.6 °F - 46.4 °F 77% 29.81 in 10.0 mi NE 4.6 mph - N/A   Mostly Cloudy
3:55 PM 53.6 °F - 46.4 °F 77% 29.80 in 10.0 mi East 6.9 mph - N/A   Overcast
4:15 PM 53.6 °F - 44.6 °F 72% 29.79 in 10.0 mi East 8.1 mph - N/A   Overcast
4:35 PM 53.6 °F - 42.8 °F 67% 29.79 in 10.0 mi East 8.1 mph - N/A   Overcast
4:55 PM 53.6 °F - 42.8 °F 67% 29.79 in 10.0 mi East 8.1 mph - N/A   Partly Cloudy
5:15 PM 51.8 °F - 42.8 °F 71% 29.78 in 10.0 mi South 3.5 mph - N/A   Mostly Cloudy
5:35 PM 50.0 °F - 42.8 °F 76% 29.78 in 10.0 mi South 3.5 mph - N/A   Overcast
5:55 PM 51.8 °F - 41.0 °F 67% 29.78 in 10.0 mi SE 4.6 mph - N/A   Overcast
6:35 PM 50.0 °F - 41.0 °F 71% 29.76 in 10.0 mi SSE 5.8 mph - N/A   Mostly Cloudy
6:55 PM 50.0 °F - 41.0 °F 71% 29.76 in 10.0 mi SSE 5.8 mph - N/A   Overcast
7:15 PM 50.0 °F - 41.0 °F 71% 29.76 in 10.0 mi SE 3.5 mph - N/A   Overcast
7:55 PM 53.6 °F - 41.0 °F 62% 29.74 in 10.0 mi SE 10.4 mph 16.1 mph N/A   Overcast
8:15 PM 53.6 °F - 41.0 °F 62% 29.73 in 10.0 mi SE 11.5 mph 18.4 mph N/A   Overcast
8:35 PM 50.0 °F - 41.0 °F 71% 29.73 in 10.0 mi SE 12.7 mph 17.3 mph N/A   Partly Cloudy
8:55 PM 50.0 °F - 41.0 °F 71% 29.71 in 10.0 mi SE 11.5 mph 17.3 mph N/A   Clear
9:15 PM 50.0 °F - 41.0 °F 71% 29.71 in 10.0 mi SE 11.5 mph 19.6 mph N/A   Clear
9:35 PM 50.0 °F - 42.8 °F 76% 29.70 in 10.0 mi SE 10.4 mph 16.1 mph N/A   Clear
9:55 PM 50.0 °F - 41.0 °F 71% 29.70 in 10.0 mi SE 12.7 mph 18.4 mph N/A   Clear
10:15 PM 51.8 °F - 41.0 °F 67% 29.70 in 10.0 mi SE 12.7 mph 18.4 mph N/A   Scattered Clouds
11:15 PM 53.6 °F - 41.0 °F 62% 29.69 in 10.0 mi SE 12.7 mph 17.3 mph N/A   Overcast
11:35 PM 53.6 °F - 41.0 °F 62% 29.67 in 10.0 mi SE 12.7 mph 20.7 mph N/A   Overcast
11:55 PM 53.6 °F - 39.2 °F 58% 29.65 in 10.0 mi SE 15.0 mph 20.7 mph N/A   Overcast